Airfield :
LOGIN :

Register | Disclaimer

   EN    FR    IT 

 










Legend :    VFR   Marginal VFR   IFR   Intensive IFR   Very Intensive IFR
Visi :
Ceiling :
>= 8 km
>= 3000ft
5 to 8 km
1000 to 3000 ft
1500m to 5 km
500 to 1000 ft
800 to 1500m
200 to 500 ft
< 800m
< 200 ft
Symbols :   Thunderstorms  Fog  Heavy snow  Heavy precipitations  Wind > 20 kt
SIGMETs :     Misc.  Thunderstorms  Icing  Turbulence  Mountain Waves  Volcanic Ashes






- Airport Elevation : 425 ft
- IATA code : DTM


EDLW - Dortmund

CURRENT METAR :
  • 170320Z 16010KT CAVOK 05/03 Q1020

EXPIRED METARs :
  • 170250Z AUTO 16009KT 9999 BKN063/// 04/03 Q1020
  • 170220Z AUTO 16009KT 9999 BKN063/// 04/03 Q1020
  • 170150Z AUTO 16009KT 9999 FEW062/// 05/03 Q1020
  • 170120Z AUTO 16009KT 9999 NCD 04/03 Q1021
  • 170050Z AUTO 16008KT 9999 FEW049/// SCT056/// 05/03 Q1021
  • 170020Z AUTO 16007KT 9999 SCT050/// 06/04 Q1021

TAF TAF EDLW
Valid from the 16 at 18:00 until the 17 at 18:00 UTC


161700Z 1618/1718 VRB03KT CAVOK
BECMG 1620/1622 17007KT
TEMPO 1710/1718 VRB02KT



MET'MAP, your aeronautical weather chart ! - Copyright ORBIFLY December 2007 - Disclaimer

ORBIFLY MET'MAP TEAM :

Programming & Development : Alexandra Zaïnal
Concept & original design : Baudouin d'Aumeries
Assistance for programming : Marc-Olivier Méhu
Technical & hardware support : Manuel Goepfert

Contact : metmap@orbifly.com




SOURCES & CREDITS :

   NOAA